createdAt,value
2023-03-10T00:01:38.235Z,112.3
2023-03-10T00:06:40.523Z,111.4
2023-03-10T00:11:42.491Z,164.6
2023-03-10T00:16:44.553Z,173
2023-03-10T00:21:49.369Z,161.5
2023-03-10T00:26:51.468Z,123.5
2023-03-10T00:31:53.450Z,77.7
2023-03-10T00:36:55.814Z,46.1
2023-03-10T00:41:58.051Z,32.8
2023-03-10T00:47:00.384Z,32.3
2023-03-10T00:52:02.472Z,30.2
2023-03-10T00:57:04.551Z,19.2
2023-03-10T01:02:06.685Z,13.6
2023-03-10T01:07:08.980Z,9.9
2023-03-10T01:12:11.038Z,8.8
2023-03-10T01:17:13.404Z,9.3
2023-03-10T01:22:15.452Z,12.2
2023-03-10T01:27:17.486Z,15.8
2023-03-10T01:32:19.543Z,18.9
2023-03-10T01:37:21.558Z,14.6
2023-03-10T01:42:23.556Z,9.9
2023-03-10T01:47:25.552Z,7.7
2023-03-10T01:52:27.979Z,6
2023-03-10T01:57:31.382Z,4.7
2023-03-10T02:02:35.608Z,4.6
2023-03-10T02:07:41.928Z,4.6
2023-03-10T02:12:44.462Z,4
2023-03-10T02:17:46.937Z,4.1
2023-03-10T02:22:49.062Z,3.8
2023-03-10T02:27:52.451Z,3.9
2023-03-10T02:32:54.524Z,4
2023-03-10T02:37:57.336Z,3.8
2023-03-10T02:43:00.668Z,3.7
2023-03-10T02:48:03.455Z,3.9
2023-03-10T02:53:12.019Z,3.8
2023-03-10T02:58:15.010Z,4
2023-03-10T03:03:25.668Z,3.8
2023-03-10T03:08:21.471Z,4
2023-03-10T03:13:23.896Z,5
2023-03-10T03:18:26.112Z,8.9
2023-03-10T03:23:29.343Z,7.5
2023-03-10T03:28:34.086Z,11.1
2023-03-10T03:33:37.368Z,7.4
2023-03-10T03:38:42.921Z,5.7
2023-03-10T03:43:45.071Z,5.4
2023-03-10T03:48:47.327Z,5.8
2023-03-10T03:53:49.336Z,5.9
2023-03-10T04:03:53.809Z,6.2
2023-03-10T04:09:00.585Z,6.6
2023-03-10T04:14:02.537Z,6.5
2023-03-10T04:19:04.761Z,7.4
2023-03-10T04:24:06.876Z,7.5
2023-03-10T04:29:08.912Z,8.1
2023-03-10T04:34:11.301Z,7.7
2023-03-10T04:39:13.578Z,8.9
2023-03-10T04:44:31.661Z,9.7
2023-03-10T04:49:24.429Z,9
2023-03-10T04:54:26.613Z,8.7
2023-03-10T04:59:28.805Z,8.7
2023-03-10T05:04:30.934Z,8.9
2023-03-10T05:09:33.401Z,9
2023-03-10T05:14:35.517Z,8.9
2023-03-10T05:19:37.727Z,8.9
2023-03-10T05:24:39.769Z,8.9
2023-03-10T05:29:41.811Z,8.5
2023-03-10T05:34:43.897Z,8.6
2023-03-10T05:39:46.075Z,8.5
2023-03-10T05:44:48.213Z,8.9
2023-03-10T05:49:50.506Z,9
2023-03-10T05:54:52.595Z,8.6
2023-03-10T05:59:54.680Z,8.8
2023-03-10T06:04:56.890Z,9.1
2023-03-10T06:10:00.218Z,8.7
2023-03-10T06:15:02.614Z,8
2023-03-10T06:20:04.562Z,8.1
2023-03-10T06:25:09.391Z,8.3
2023-03-10T06:30:11.360Z,9
2023-03-10T06:35:13.300Z,9.1
2023-03-10T06:40:15.742Z,8.9
2023-03-10T06:45:17.974Z,8.7
2023-03-10T06:50:20.034Z,9.1
2023-03-10T06:55:23.389Z,9.8
2023-03-10T07:00:25.882Z,8.9
2023-03-10T07:05:27.931Z,8.5
2023-03-10T07:10:30.195Z,7.8
2023-03-10T07:15:32.203Z,7.2
2023-03-10T07:20:34.268Z,6.2
2023-03-10T07:25:36.374Z,5.8
2023-03-10T07:30:38.470Z,5.5
2023-03-10T07:35:41.657Z,80.9
2023-03-10T07:40:43.929Z,57.8
2023-03-10T07:45:46.090Z,13.1
2023-03-10T07:50:48.480Z,18.6
2023-03-10T07:55:50.736Z,18.7
2023-03-10T08:00:52.744Z,19.1
2023-03-10T08:05:54.792Z,28.2
2023-03-10T08:10:57.043Z,16
2023-03-10T08:16:00.342Z,13
2023-03-10T08:21:02.977Z,13.5
2023-03-10T08:26:05.114Z,13.9
2023-03-10T08:31:07.198Z,11
2023-03-10T08:36:09.830Z,12.3
2023-03-10T08:41:12.803Z,37.1
2023-03-10T08:46:13.640Z,12.5
2023-03-10T08:51:16.906Z,15.1
2023-03-10T08:56:19.226Z,14.8
2023-03-10T09:01:23.661Z,11.6
2023-03-10T09:06:27.077Z,79.8
2023-03-10T09:11:29.179Z,152.2
2023-03-10T09:16:31.373Z,28.6
2023-03-10T09:21:34.875Z,3
2023-03-10T09:26:37.861Z,3.2
2023-03-10T09:31:40.001Z,4
2023-03-10T09:36:42.614Z,3.7
2023-03-10T09:41:44.645Z,3.7
2023-03-10T09:46:46.738Z,3.6
2023-03-10T09:51:48.961Z,3.8
2023-03-10T09:56:50.922Z,3.7
2023-03-10T10:01:56.186Z,3.6
2023-03-10T10:06:58.266Z,3.7
2023-03-10T10:12:00.632Z,4.3
2023-03-10T10:17:02.827Z,4.7
2023-03-10T10:22:08.011Z,4.5
2023-03-10T10:27:10.775Z,5
2023-03-10T10:32:13.291Z,4.4
2023-03-10T10:37:16.970Z,340.1
2023-03-10T10:42:19.216Z,106.8
2023-03-10T10:47:21.489Z,17.7
2023-03-10T10:52:23.527Z,19.2
2023-03-10T10:57:25.684Z,15.6
2023-03-10T11:02:27.866Z,25.3
2023-03-10T11:07:30.553Z,23.4
2023-03-10T11:12:32.829Z,27.7
2023-03-10T11:17:34.908Z,46.3
2023-03-10T11:22:36.958Z,84.7
2023-03-10T11:27:39.013Z,134.7
2023-03-10T11:32:41.075Z,203.6
2023-03-10T11:37:43.274Z,305.8
2023-03-10T11:42:45.281Z,303.9
2023-03-10T11:47:47.517Z,280.9
2023-03-10T11:52:51.654Z,298.9
2023-03-10T11:57:53.960Z,176.1
2023-03-10T12:02:56.059Z,78
2023-03-10T12:07:58.347Z,20.5
2023-03-10T12:13:00.516Z,37.2
2023-03-10T12:18:02.748Z,39
2023-03-10T12:23:05.158Z,30.6
2023-03-10T12:28:07.692Z,44.7
2023-03-10T12:33:10.066Z,33.3
2023-03-10T12:38:12.056Z,28.4
2023-03-10T12:43:14.178Z,31.7
2023-03-10T12:48:16.124Z,22
2023-03-10T12:53:18.304Z,21
2023-03-10T12:58:20.519Z,13.9
2023-03-10T13:03:22.617Z,7.1
2023-03-10T13:08:24.797Z,7.4
2023-03-10T13:13:27.317Z,8.9
2023-03-10T13:18:29.538Z,10.1
2023-03-10T13:23:31.650Z,13.6
2023-03-10T13:28:33.895Z,17.9
2023-03-10T13:33:52.624Z,17
2023-03-10T13:38:47.128Z,12.2
2023-03-10T13:43:49.468Z,9.3
2023-03-10T13:48:51.427Z,10.2
2023-03-10T13:53:53.528Z,12.3
2023-03-10T13:58:55.858Z,12.9
2023-03-10T14:03:58.175Z,13
2023-03-10T14:09:00.516Z,17.3
2023-03-10T14:14:02.710Z,16.8
2023-03-10T14:19:04.818Z,18
2023-03-10T14:24:06.831Z,17.9
2023-03-10T14:29:08.854Z,10.1
2023-03-10T14:34:10.936Z,24.8
2023-03-10T14:39:13.365Z,14.4
2023-03-10T14:44:15.623Z,35.1
2023-03-10T14:49:18.273Z,25
2023-03-10T14:54:20.868Z,37.9
2023-03-10T14:59:23.069Z,31.1
2023-03-10T15:04:25.287Z,47.8
2023-03-10T15:09:27.375Z,33.5
2023-03-10T15:14:29.657Z,24
2023-03-10T15:19:31.760Z,69
2023-03-10T15:24:34.048Z,21.6
2023-03-10T15:29:36.239Z,45
2023-03-10T15:34:38.529Z,48.7
2023-03-10T15:39:40.638Z,317.3
2023-03-10T15:44:42.761Z,108.4
2023-03-10T15:49:44.834Z,101
2023-03-10T15:54:46.852Z,187
2023-03-10T15:59:49.339Z,183.3
2023-03-10T16:04:51.988Z,141.1
2023-03-10T16:09:54.616Z,180.9
2023-03-10T16:14:56.761Z,234.3
2023-03-10T16:19:58.977Z,265.9
2023-03-10T16:25:02.032Z,324
2023-03-10T16:30:04.786Z,292.5
2023-03-10T16:35:07.404Z,202.7
2023-03-10T16:40:09.674Z,134.4
2023-03-10T16:45:11.947Z,60.6
2023-03-10T16:50:14.025Z,13.3
2023-03-10T16:55:16.070Z,4.4
2023-03-10T17:00:18.710Z,3.9
2023-03-10T17:05:22.065Z,3
2023-03-10T17:10:24.221Z,2.7
2023-03-10T17:15:26.266Z,2.4
2023-03-10T17:20:28.552Z,2.7
2023-03-10T17:25:30.589Z,2.3
2023-03-10T17:30:34.076Z,1.9
2023-03-10T17:35:36.577Z,1.9
2023-03-10T17:40:38.794Z,2.1
2023-03-10T17:45:41.115Z,2.4
2023-03-10T17:50:43.643Z,2.6
2023-03-10T17:55:45.627Z,2.7
2023-03-10T18:00:47.779Z,2.5
2023-03-10T18:05:50.048Z,2.4
2023-03-10T18:10:52.252Z,2.2
2023-03-10T18:15:54.645Z,2.7
2023-03-10T18:20:56.827Z,3.3
2023-03-10T18:25:58.908Z,3
2023-03-10T18:31:03.221Z,2.8
2023-03-10T18:36:08.620Z,2.7
2023-03-10T18:41:10.742Z,3.1
2023-03-10T18:46:12.859Z,3.1
2023-03-10T18:51:15.147Z,2.8
2023-03-10T18:56:17.294Z,3
2023-03-10T19:01:22.358Z,2.8
2023-03-10T19:06:24.569Z,2.6
2023-03-10T19:11:26.902Z,2.7
2023-03-10T19:16:29.794Z,2.7
2023-03-10T19:21:32.032Z,3
2023-03-10T19:26:34.410Z,2.6
2023-03-10T19:31:36.649Z,2.7
2023-03-10T19:36:38.961Z,3
2023-03-10T19:41:41.177Z,3.2
2023-03-10T19:46:44.550Z,3.3
2023-03-10T19:51:47.037Z,3.4
2023-03-10T19:56:49.120Z,3.5
2023-03-10T20:01:51.247Z,3.6
2023-03-10T20:06:53.384Z,3.4
2023-03-10T20:11:56.232Z,3.5
2023-03-10T20:16:59.210Z,4
2023-03-10T20:22:01.605Z,4.1
2023-03-10T20:27:03.849Z,3.9
2023-03-10T20:32:09.960Z,4.3
2023-03-10T20:37:15.388Z,4.5
2023-03-10T20:42:17.370Z,4.5
2023-03-10T20:47:19.375Z,4.7
2023-03-10T20:52:21.490Z,4.7
2023-03-10T20:57:23.721Z,4.8
2023-03-10T21:02:25.744Z,4.8
2023-03-10T21:07:27.973Z,4.4
2023-03-10T21:12:29.982Z,3.9
2023-03-10T21:17:32.390Z,4
2023-03-10T21:22:34.439Z,3.9
2023-03-10T21:27:36.446Z,3.7
2023-03-10T21:32:38.695Z,3.9
2023-03-10T21:37:43.078Z,3.5
2023-03-10T21:42:45.639Z,3.7
2023-03-10T21:47:47.976Z,4
2023-03-10T21:52:50.365Z,4.2
2023-03-10T21:57:52.838Z,4.8
2023-03-10T22:02:54.901Z,6.5
2023-03-10T22:07:57.127Z,6.6
2023-03-10T22:12:59.386Z,7.8
2023-03-10T22:18:01.476Z,9.9
2023-03-10T22:23:03.481Z,12.4
2023-03-10T22:28:05.503Z,13.1
2023-03-10T22:33:07.654Z,17.3
2023-03-10T22:38:09.729Z,19
2023-03-10T22:43:11.800Z,22.1
2023-03-10T22:48:14.070Z,21.8
2023-03-10T22:53:16.093Z,30.3
2023-03-10T22:58:18.448Z,36.5
2023-03-10T23:03:20.815Z,39.6
2023-03-10T23:08:23.375Z,39.2
2023-03-10T23:13:27.498Z,36.7
2023-03-10T23:18:30.000Z,34.5
2023-03-10T23:23:32.110Z,28.4
2023-03-10T23:28:34.258Z,23.5
2023-03-10T23:33:36.316Z,15.2
2023-03-10T23:38:38.389Z,18.3
2023-03-10T23:43:40.533Z,24.4
2023-03-10T23:48:42.676Z,38.7
2023-03-10T23:53:44.723Z,50.9
2023-03-10T23:58:47.078Z,65.9
